SAS72G EKCH-EGLL
Flight info
| Callsign | SAS72G |
|---|---|
| Flight time | 1h 28m |
| Altitude | 36000 |
| Route | LANGO M611 ALASA DCT EEL DCT VALKO DCT ABNED L980 LOGAN |
| Aircraft | A320/M-SDE1FGHIJ1RWXYZ/LB1 |
Departure
| Time | 2026-04-22 14:49 |
|---|---|
| Airport | Copenhagen Kastrup Airport (EKCH) |
Arrival
| Time | 2026-04-22 16:17 |
|---|---|
| Airport | London Heathrow Airport (EGLL) |
| Time | Latitude | Longitude | Altitude | Speed | Heading |
|---|---|---|---|---|---|
| 2026-04-22 14:15 | 55.62697 | 12.65082 | 17 ft | 0 kts | 289° |
| 2026-04-22 14:37 | 55.62695 | 12.65089 | 17 ft | 3 kts | 289° |
| 2026-04-22 14:38 | 55.62687 | 12.65129 | 17 ft | 1 kts | 289° |
| 2026-04-22 14:38 | 55.62679 | 12.65167 | 19 ft | 4 kts | 295° |
| 2026-04-22 14:38 | 55.62667 | 12.65210 | 19 ft | 4 kts | 299° |
| 2026-04-22 14:38 | 55.62654 | 12.65252 | 17 ft | 4 kts | 286° |
| 2026-04-22 14:39 | 55.62649 | 12.65291 | 18 ft | 4 kts | 300° |
| 2026-04-22 14:39 | 55.62631 | 12.65318 | 17 ft | 4 kts | 351° |
| 2026-04-22 14:39 | 55.62607 | 12.65321 | 17 ft | 4 kts | 356° |
| 2026-04-22 14:40 | 55.62596 | 12.65322 | 17 ft | 1 kts | 359° |
| 2026-04-22 14:42 | 55.62600 | 12.65322 | 17 ft | 3 kts | 359° |
| 2026-04-22 14:42 | 55.62631 | 12.65311 | 17 ft | 6 kts | 337° |
| 2026-04-22 14:42 | 55.62649 | 12.65236 | 17 ft | 8 kts | 256° |
| 2026-04-22 14:43 | 55.62595 | 12.65194 | 17 ft | 10 kts | 177° |
| 2026-04-22 14:43 | 55.62521 | 12.65198 | 17 ft | 9 kts | 179° |
| 2026-04-22 14:43 | 55.62455 | 12.65201 | 17 ft | 10 kts | 178° |
| 2026-04-22 14:43 | 55.62376 | 12.65204 | 17 ft | 12 kts | 179° |
| 2026-04-22 14:44 | 55.62285 | 12.65202 | 17 ft | 13 kts | 183° |
| 2026-04-22 14:44 | 55.62200 | 12.65168 | 17 ft | 12 kts | 207° |
| 2026-04-22 14:44 | 55.62122 | 12.65083 | 19 ft | 14 kts | 213° |
| 2026-04-22 14:44 | 55.62033 | 12.64980 | 19 ft | 17 kts | 213° |
| 2026-04-22 14:45 | 55.61925 | 12.64855 | 17 ft | 20 kts | 213° |
| 2026-04-22 14:45 | 55.61802 | 12.64713 | 18 ft | 22 kts | 213° |
| 2026-04-22 14:45 | 55.61669 | 12.64560 | 18 ft | 22 kts | 213° |
| 2026-04-22 14:45 | 55.61540 | 12.64413 | 17 ft | 21 kts | 213° |
| 2026-04-22 14:46 | 55.61422 | 12.64277 | 20 ft | 20 kts | 213° |
| 2026-04-22 14:46 | 55.61297 | 12.64133 | 18 ft | 22 kts | 213° |
| 2026-04-22 14:46 | 55.61170 | 12.63987 | 18 ft | 21 kts | 213° |
| 2026-04-22 14:46 | 55.61041 | 12.63838 | 17 ft | 23 kts | 213° |
| 2026-04-22 14:47 | 55.60914 | 12.63693 | 18 ft | 18 kts | 212° |
| 2026-04-22 14:47 | 55.60814 | 12.63589 | 17 ft | 12 kts | 195° |
| 2026-04-22 14:47 | 55.60745 | 12.63670 | 19 ft | 14 kts | 129° |
| 2026-04-22 14:47 | 55.60687 | 12.63794 | 20 ft | 11 kts | 129° |
| 2026-04-22 14:48 | 55.60696 | 12.63901 | 19 ft | 12 kts | 44° |
| 2026-04-22 14:48 | 55.60859 | 12.64149 | 18 ft | 65 kts | 41° |
| 2026-04-22 14:48 | 55.61373 | 12.64945 | 19 ft | 128 kts | 41° |
| 2026-04-22 14:48 | 55.62161 | 12.66153 | 136 ft | 162 kts | 37° |
| 2026-04-22 14:49 | 55.62999 | 12.67438 | 787 ft | 159 kts | 35° |
| 2026-04-22 14:49 | 55.63848 | 12.68725 | 1379 ft | 164 kts | 38° |
| 2026-04-22 14:49 | 55.64503 | 12.70499 | 1797 ft | 185 kts | 67° |
| 2026-04-22 14:49 | 55.64616 | 12.72882 | 2185 ft | 207 kts | 96° |
| 2026-04-22 14:50 | 55.64070 | 12.75404 | 2505 ft | 237 kts | 122° |
| 2026-04-22 14:50 | 55.63032 | 12.77866 | 2932 ft | 261 kts | 126° |
| 2026-04-22 14:50 | 55.61901 | 12.80461 | 3588 ft | 274 kts | 129° |
| 2026-04-22 14:50 | 55.60452 | 12.82676 | 4511 ft | 278 kts | 149° |
| 2026-04-22 14:51 | 55.58626 | 12.83959 | 5258 ft | 289 kts | 169° |
| 2026-04-22 14:51 | 55.56596 | 12.84094 | 6002 ft | 296 kts | 191° |
| 2026-04-22 14:51 | 55.54680 | 12.82996 | 7048 ft | 285 kts | 212° |
| 2026-04-22 14:51 | 55.53111 | 12.80900 | 7909 ft | 284 kts | 230° |
| 2026-04-22 14:52 | 55.51930 | 12.78101 | 8641 ft | 288 kts | 244° |
| 2026-04-22 14:52 | 55.50960 | 12.74968 | 9333 ft | 294 kts | 246° |
| 2026-04-22 14:52 | 55.50003 | 12.71741 | 10074 ft | 299 kts | 247° |
| 2026-04-22 14:52 | 55.49049 | 12.68442 | 10647 ft | 310 kts | 247° |
| 2026-04-22 14:53 | 55.48044 | 12.64912 | 10875 ft | 333 kts | 246° |
| 2026-04-22 14:53 | 55.46987 | 12.61194 | 11389 ft | 343 kts | 246° |
| 2026-04-22 14:53 | 55.45908 | 12.57417 | 12031 ft | 348 kts | 246° |
| 2026-04-22 14:53 | 55.44806 | 12.53581 | 12696 ft | 353 kts | 246° |
| 2026-04-22 14:54 | 55.43701 | 12.49753 | 13337 ft | 357 kts | 246° |
| 2026-04-22 14:54 | 55.42566 | 12.45836 | 14000 ft | 361 kts | 245° |
| 2026-04-22 14:54 | 55.41415 | 12.41874 | 14653 ft | 365 kts | 245° |
| 2026-04-22 14:54 | 55.40252 | 12.37878 | 15273 ft | 369 kts | 245° |
| 2026-04-22 14:55 | 55.39077 | 12.33839 | 15874 ft | 373 kts | 245° |
| 2026-04-22 14:55 | 55.37886 | 12.29762 | 16476 ft | 376 kts | 244° |
| 2026-04-22 14:55 | 55.36684 | 12.25646 | 17064 ft | 380 kts | 244° |
| 2026-04-22 14:55 | 55.35475 | 12.21492 | 17622 ft | 384 kts | 244° |
| 2026-04-22 14:56 | 55.34250 | 12.17295 | 18203 ft | 387 kts | 244° |
| 2026-04-22 14:56 | 55.33011 | 12.13068 | 18771 ft | 391 kts | 244° |
| 2026-04-22 14:56 | 55.31760 | 12.08810 | 19334 ft | 394 kts | 244° |
| 2026-04-22 14:56 | 55.30494 | 12.04517 | 19938 ft | 397 kts | 243° |
| 2026-04-22 14:57 | 55.29215 | 12.00196 | 20517 ft | 400 kts | 243° |
| 2026-04-22 14:57 | 55.27925 | 11.95846 | 21064 ft | 403 kts | 243° |
| 2026-04-22 14:57 | 55.26629 | 11.91469 | 21591 ft | 406 kts | 243° |
| 2026-04-22 14:57 | 55.25338 | 11.87112 | 22090 ft | 410 kts | 243° |
| 2026-04-22 14:58 | 55.24020 | 11.82671 | 22594 ft | 413 kts | 243° |
| 2026-04-22 14:58 | 55.22687 | 11.78193 | 23093 ft | 415 kts | 243° |
| 2026-04-22 14:58 | 55.21347 | 11.73692 | 23575 ft | 418 kts | 243° |
| 2026-04-22 14:58 | 55.19995 | 11.69158 | 24049 ft | 421 kts | 243° |
| 2026-04-22 14:59 | 55.18631 | 11.64600 | 24500 ft | 424 kts | 243° |
| 2026-04-22 14:59 | 55.17253 | 11.60012 | 24914 ft | 428 kts | 242° |
| 2026-04-22 14:59 | 55.15861 | 11.55389 | 25280 ft | 432 kts | 242° |
| 2026-04-22 14:59 | 55.14451 | 11.50716 | 25647 ft | 436 kts | 242° |
| 2026-04-22 15:00 | 55.13026 | 11.46001 | 26010 ft | 440 kts | 242° |
| 2026-04-22 15:00 | 55.11592 | 11.41255 | 26359 ft | 444 kts | 242° |
| 2026-04-22 15:00 | 55.10143 | 11.36467 | 26720 ft | 448 kts | 242° |
| 2026-04-22 15:00 | 55.08682 | 11.31645 | 27065 ft | 451 kts | 242° |
| 2026-04-22 15:01 | 55.07227 | 11.26847 | 27388 ft | 455 kts | 241° |
| 2026-04-22 15:01 | 55.05739 | 11.21958 | 27704 ft | 458 kts | 241° |
| 2026-04-22 15:01 | 55.04237 | 11.17038 | 28025 ft | 461 kts | 241° |
| 2026-04-22 15:01 | 55.02725 | 11.12092 | 28342 ft | 464 kts | 241° |
| 2026-04-22 15:02 | 55.01199 | 11.07122 | 28670 ft | 467 kts | 241° |
| 2026-04-22 15:02 | 54.99659 | 11.02124 | 28980 ft | 470 kts | 241° |
| 2026-04-22 15:02 | 54.98107 | 10.97100 | 29277 ft | 473 kts | 240° |
| 2026-04-22 15:02 | 54.96539 | 10.92036 | 29593 ft | 476 kts | 240° |
| 2026-04-22 15:03 | 54.95022 | 10.86891 | 29889 ft | 480 kts | 246° |
| 2026-04-22 15:03 | 54.93927 | 10.81392 | 30189 ft | 482 kts | 256° |
| 2026-04-22 15:03 | 54.93104 | 10.75802 | 30477 ft | 485 kts | 256° |
| 2026-04-22 15:03 | 54.92254 | 10.70105 | 30764 ft | 488 kts | 256° |
| 2026-04-22 15:04 | 54.91393 | 10.64389 | 31049 ft | 490 kts | 256° |
| 2026-04-22 15:04 | 54.90521 | 10.58655 | 31413 ft | 491 kts | 256° |
| 2026-04-22 15:04 | 54.89645 | 10.52929 | 31828 ft | 490 kts | 256° |
| 2026-04-22 15:04 | 54.88773 | 10.47225 | 32225 ft | 489 kts | 255° |
| 2026-04-22 15:05 | 54.87896 | 10.41520 | 32593 ft | 489 kts | 255° |
| 2026-04-22 15:05 | 54.87019 | 10.35821 | 32978 ft | 489 kts | 255° |
| 2026-04-22 15:05 | 54.86142 | 10.30122 | 33360 ft | 488 kts | 255° |
| 2026-04-22 15:05 | 54.85265 | 10.24432 | 33737 ft | 488 kts | 255° |
| 2026-04-22 15:06 | 54.84385 | 10.18739 | 34104 ft | 488 kts | 255° |
| 2026-04-22 15:06 | 54.83503 | 10.13060 | 34477 ft | 487 kts | 255° |
| 2026-04-22 15:06 | 54.82628 | 10.07462 | 34866 ft | 486 kts | 255° |
| 2026-04-22 15:06 | 54.81698 | 10.01841 | 35273 ft | 484 kts | 251° |
| 2026-04-22 15:07 | 54.80388 | 9.96485 | 35613 ft | 483 kts | 241° |
| 2026-04-22 15:07 | 54.78651 | 9.91522 | 35877 ft | 482 kts | 231° |
| 2026-04-22 15:07 | 54.76572 | 9.86973 | 36096 ft | 482 kts | 227° |
| 2026-04-22 15:07 | 54.74450 | 9.82481 | 36314 ft | 482 kts | 227° |
| 2026-04-22 15:08 | 54.70212 | 9.73468 | 36357 ft | 483 kts | 228° |
| 2026-04-22 15:08 | 54.65973 | 9.64453 | 36358 ft | 483 kts | 228° |
| 2026-04-22 15:09 | 54.61751 | 9.55514 | 36357 ft | 483 kts | 227° |
| 2026-04-22 15:09 | 54.57497 | 9.46564 | 36357 ft | 483 kts | 227° |
| 2026-04-22 15:10 | 54.53227 | 9.37629 | 36362 ft | 482 kts | 227° |
| 2026-04-22 15:10 | 54.48959 | 9.28707 | 36372 ft | 483 kts | 227° |
| 2026-04-22 15:11 | 54.44684 | 9.19798 | 36376 ft | 483 kts | 227° |
| 2026-04-22 15:11 | 54.40429 | 9.10960 | 36380 ft | 483 kts | 227° |
| 2026-04-22 15:12 | 54.36139 | 9.02097 | 36385 ft | 482 kts | 227° |
| 2026-04-22 15:12 | 54.31840 | 8.93258 | 36392 ft | 482 kts | 227° |
| 2026-04-22 15:13 | 54.27550 | 8.84447 | 36398 ft | 481 kts | 228° |
| 2026-04-22 15:13 | 54.23259 | 8.75658 | 36408 ft | 480 kts | 228° |
| 2026-04-22 15:14 | 54.18971 | 8.66922 | 36414 ft | 479 kts | 227° |
| 2026-04-22 15:14 | 54.14676 | 8.58214 | 36417 ft | 479 kts | 228° |
| 2026-04-22 15:15 | 54.10386 | 8.49531 | 36423 ft | 478 kts | 228° |
| 2026-04-22 15:15 | 54.06097 | 8.40874 | 36429 ft | 478 kts | 228° |
| 2026-04-22 15:16 | 54.01836 | 8.32314 | 36432 ft | 476 kts | 228° |
| 2026-04-22 15:16 | 53.97558 | 8.23740 | 36435 ft | 475 kts | 228° |
| 2026-04-22 15:17 | 53.93282 | 8.15199 | 36436 ft | 474 kts | 228° |
| 2026-04-22 15:17 | 53.88994 | 8.06688 | 36437 ft | 474 kts | 228° |
| 2026-04-22 15:18 | 53.84710 | 7.98201 | 36436 ft | 474 kts | 228° |
| 2026-04-22 15:18 | 53.80418 | 7.89739 | 36437 ft | 474 kts | 228° |
| 2026-04-22 15:19 | 53.76149 | 7.81327 | 36434 ft | 473 kts | 228° |
| 2026-04-22 15:19 | 53.71858 | 7.72890 | 36436 ft | 473 kts | 228° |
| 2026-04-22 15:20 | 53.67555 | 7.64484 | 36435 ft | 473 kts | 227° |
| 2026-04-22 15:20 | 53.63248 | 7.56114 | 36436 ft | 472 kts | 228° |
| 2026-04-22 15:21 | 53.58947 | 7.47754 | 36437 ft | 472 kts | 228° |
| 2026-04-22 15:21 | 53.54638 | 7.39415 | 36435 ft | 472 kts | 228° |
| 2026-04-22 15:22 | 53.50325 | 7.31105 | 36439 ft | 472 kts | 228° |
| 2026-04-22 15:22 | 53.46010 | 7.22817 | 36449 ft | 471 kts | 228° |
| 2026-04-22 15:23 | 53.41684 | 7.14546 | 36455 ft | 471 kts | 228° |
| 2026-04-22 15:23 | 53.37399 | 7.06344 | 36453 ft | 471 kts | 228° |
| 2026-04-22 15:24 | 53.33079 | 6.98105 | 36455 ft | 470 kts | 228° |
| 2026-04-22 15:24 | 53.28757 | 6.89915 | 36455 ft | 470 kts | 228° |
| 2026-04-22 15:25 | 53.24426 | 6.81743 | 36452 ft | 470 kts | 228° |
| 2026-04-22 15:25 | 53.20092 | 6.73583 | 36449 ft | 469 kts | 228° |
| 2026-04-22 15:26 | 53.15911 | 6.65241 | 36444 ft | 468 kts | 237° |
| 2026-04-22 15:26 | 53.12511 | 6.55996 | 36440 ft | 468 kts | 239° |
| 2026-04-22 15:27 | 53.09116 | 6.46746 | 36436 ft | 468 kts | 239° |
| 2026-04-22 15:27 | 53.05707 | 6.37531 | 36435 ft | 468 kts | 239° |
| 2026-04-22 15:28 | 53.02294 | 6.28318 | 36437 ft | 468 kts | 239° |
| 2026-04-22 15:28 | 52.98894 | 6.19173 | 36437 ft | 468 kts | 239° |
| 2026-04-22 15:29 | 52.95475 | 6.09986 | 36438 ft | 468 kts | 239° |
| 2026-04-22 15:30 | 52.90904 | 5.97806 | 36441 ft | 467 kts | 239° |
| 2026-04-22 15:30 | 52.86891 | 5.87133 | 36447 ft | 466 kts | 239° |
| 2026-04-22 15:31 | 52.83458 | 5.78042 | 36450 ft | 465 kts | 239° |
| 2026-04-22 15:31 | 52.80042 | 5.69039 | 36444 ft | 465 kts | 239° |
| 2026-04-22 15:32 | 52.76604 | 5.60002 | 36437 ft | 464 kts | 239° |
| 2026-04-22 15:32 | 52.73170 | 5.50988 | 36431 ft | 464 kts | 239° |
| 2026-04-22 15:33 | 52.69719 | 5.42008 | 36432 ft | 463 kts | 239° |
| 2026-04-22 15:33 | 52.66271 | 5.33052 | 36422 ft | 463 kts | 239° |
| 2026-04-22 15:34 | 52.63400 | 5.25620 | 36422 ft | 462 kts | 238° |
| 2026-04-22 15:34 | 52.59948 | 5.16699 | 36422 ft | 462 kts | 239° |
| 2026-04-22 15:35 | 52.56499 | 5.07790 | 36420 ft | 462 kts | 239° |
| 2026-04-22 15:35 | 52.52479 | 4.97477 | 36416 ft | 461 kts | 238° |
| 2026-04-22 15:36 | 52.49594 | 4.90118 | 36417 ft | 461 kts | 238° |
| 2026-04-22 15:36 | 52.46125 | 4.81283 | 36418 ft | 460 kts | 239° |
| 2026-04-22 15:37 | 52.42656 | 4.72464 | 36420 ft | 460 kts | 239° |
| 2026-04-22 15:37 | 52.39177 | 4.63662 | 36410 ft | 459 kts | 239° |
| 2026-04-22 15:38 | 52.35694 | 4.54892 | 36413 ft | 459 kts | 239° |
| 2026-04-22 15:38 | 52.30500 | 4.41844 | 36409 ft | 458 kts | 239° |
| 2026-04-22 15:39 | 52.27022 | 4.33144 | 36403 ft | 457 kts | 239° |
| 2026-04-22 15:39 | 52.23542 | 4.24469 | 36402 ft | 457 kts | 239° |
| 2026-04-22 15:40 | 52.20050 | 4.15804 | 36400 ft | 456 kts | 239° |
| 2026-04-22 15:40 | 52.16563 | 4.07169 | 36402 ft | 456 kts | 239° |
| 2026-04-22 15:41 | 52.13091 | 3.98615 | 36401 ft | 456 kts | 239° |
| 2026-04-22 15:41 | 52.09591 | 3.90020 | 36404 ft | 455 kts | 239° |
| 2026-04-22 15:42 | 52.06241 | 3.81306 | 36411 ft | 453 kts | 244° |
| 2026-04-22 15:42 | 52.03274 | 3.72266 | 36414 ft | 454 kts | 244° |
| 2026-04-22 15:43 | 52.00294 | 3.63235 | 36410 ft | 453 kts | 244° |
| 2026-04-22 15:43 | 51.97307 | 3.54214 | 36412 ft | 453 kts | 244° |
| 2026-04-22 15:44 | 51.94307 | 3.45206 | 36406 ft | 453 kts | 244° |
| 2026-04-22 15:44 | 51.91336 | 3.36305 | 36410 ft | 452 kts | 244° |
| 2026-04-22 15:45 | 51.88336 | 3.27362 | 36410 ft | 451 kts | 244° |
| 2026-04-22 15:45 | 51.85548 | 3.18302 | 36399 ft | 447 kts | 254° |
| 2026-04-22 15:46 | 51.84355 | 3.08552 | 36402 ft | 440 kts | 267° |
| 2026-04-22 15:46 | 51.83734 | 2.98697 | 36225 ft | 440 kts | 267° |
| 2026-04-22 15:47 | 51.83412 | 2.93793 | 35977 ft | 438 kts | 267° |
| 2026-04-22 15:47 | 51.83088 | 2.88964 | 35731 ft | 437 kts | 267° |
| 2026-04-22 15:47 | 51.82758 | 2.84088 | 35481 ft | 436 kts | 267° |
| 2026-04-22 15:47 | 51.82429 | 2.79227 | 35231 ft | 434 kts | 267° |
| 2026-04-22 15:48 | 51.82099 | 2.74396 | 34981 ft | 431 kts | 267° |
| 2026-04-22 15:48 | 51.81768 | 2.69592 | 34731 ft | 429 kts | 267° |
| 2026-04-22 15:48 | 51.81440 | 2.64808 | 34480 ft | 426 kts | 267° |
| 2026-04-22 15:48 | 51.81115 | 2.60049 | 34230 ft | 424 kts | 267° |
| 2026-04-22 15:49 | 51.80792 | 2.55327 | 33980 ft | 421 kts | 267° |
| 2026-04-22 15:49 | 51.80468 | 2.50642 | 33730 ft | 419 kts | 267° |
| 2026-04-22 15:49 | 51.80142 | 2.45964 | 33482 ft | 417 kts | 266° |
| 2026-04-22 15:49 | 51.79817 | 2.41344 | 33087 ft | 412 kts | 266° |
| 2026-04-22 15:50 | 51.79491 | 2.36754 | 32605 ft | 410 kts | 266° |
| 2026-04-22 15:50 | 51.79165 | 2.32191 | 32136 ft | 408 kts | 266° |
| 2026-04-22 15:50 | 51.78842 | 2.27711 | 31670 ft | 405 kts | 266° |
| 2026-04-22 15:50 | 51.78516 | 2.23205 | 31221 ft | 403 kts | 266° |
| 2026-04-22 15:51 | 51.78207 | 2.18727 | 30774 ft | 400 kts | 267° |
| 2026-04-22 15:51 | 51.77932 | 2.14273 | 30328 ft | 397 kts | 267° |
| 2026-04-22 15:51 | 51.77678 | 2.09844 | 29890 ft | 395 kts | 268° |
| 2026-04-22 15:51 | 51.77434 | 2.05432 | 29468 ft | 393 kts | 267° |
| 2026-04-22 15:52 | 51.77189 | 2.01048 | 29051 ft | 391 kts | 267° |
| 2026-04-22 15:52 | 51.76940 | 1.96693 | 28643 ft | 389 kts | 267° |
| 2026-04-22 15:52 | 51.76684 | 1.92359 | 28236 ft | 387 kts | 266° |
| 2026-04-22 15:52 | 51.76423 | 1.88039 | 27851 ft | 386 kts | 266° |
| 2026-04-22 15:53 | 51.76158 | 1.83739 | 27449 ft | 384 kts | 266° |
| 2026-04-22 15:53 | 51.75892 | 1.79457 | 27066 ft | 383 kts | 266° |
| 2026-04-22 15:53 | 51.75625 | 1.75186 | 26674 ft | 381 kts | 266° |
| 2026-04-22 15:53 | 51.75359 | 1.70936 | 26291 ft | 379 kts | 266° |
| 2026-04-22 15:54 | 51.75092 | 1.66710 | 25881 ft | 377 kts | 265° |
| 2026-04-22 15:54 | 51.74827 | 1.62502 | 25493 ft | 375 kts | 265° |
| 2026-04-22 15:54 | 51.74564 | 1.58324 | 25341 ft | 375 kts | 265° |
| 2026-04-22 15:54 | 51.74303 | 1.54175 | 25363 ft | 378 kts | 265° |
| 2026-04-22 15:55 | 51.74035 | 1.49952 | 25370 ft | 378 kts | 265° |
| 2026-04-22 15:55 | 51.73764 | 1.45741 | 25371 ft | 378 kts | 265° |
| 2026-04-22 15:55 | 51.73492 | 1.41528 | 25370 ft | 377 kts | 265° |
| 2026-04-22 15:55 | 51.73219 | 1.37318 | 25371 ft | 377 kts | 265° |
| 2026-04-22 15:56 | 51.72943 | 1.33098 | 24919 ft | 382 kts | 265° |
| 2026-04-22 15:56 | 51.72660 | 1.28781 | 24059 ft | 392 kts | 265° |
| 2026-04-22 15:56 | 51.72368 | 1.24355 | 23203 ft | 400 kts | 265° |
| 2026-04-22 15:56 | 51.72070 | 1.19881 | 22350 ft | 401 kts | 264° |
| 2026-04-22 15:57 | 51.71771 | 1.15403 | 21495 ft | 402 kts | 264° |
| 2026-04-22 15:57 | 51.71468 | 1.10919 | 20617 ft | 402 kts | 264° |
| 2026-04-22 15:57 | 51.71162 | 1.06431 | 19713 ft | 403 kts | 264° |
| 2026-04-22 15:57 | 51.70853 | 1.01941 | 18807 ft | 403 kts | 263° |
| 2026-04-22 15:58 | 51.70541 | 0.97452 | 17901 ft | 402 kts | 263° |
| 2026-04-22 15:58 | 51.70230 | 0.92971 | 17037 ft | 400 kts | 263° |
| 2026-04-22 15:58 | 51.69929 | 0.88601 | 16569 ft | 386 kts | 263° |
| 2026-04-22 15:58 | 51.69639 | 0.84377 | 16116 ft | 372 kts | 263° |
| 2026-04-22 15:59 | 51.69360 | 0.80344 | 15674 ft | 361 kts | 262° |
| 2026-04-22 15:59 | 51.69081 | 0.76381 | 15220 ft | 351 kts | 262° |
| 2026-04-22 15:59 | 51.68806 | 0.72521 | 14770 ft | 342 kts | 262° |
| 2026-04-22 15:59 | 51.68535 | 0.68751 | 14319 ft | 335 kts | 262° |
| 2026-04-22 16:00 | 51.68271 | 0.65062 | 13868 ft | 329 kts | 262° |
| 2026-04-22 16:00 | 51.68013 | 0.61430 | 13416 ft | 324 kts | 262° |
| 2026-04-22 16:00 | 51.67758 | 0.57856 | 12966 ft | 318 kts | 262° |
| 2026-04-22 16:00 | 51.67504 | 0.54345 | 12533 ft | 314 kts | 262° |
| 2026-04-22 16:01 | 51.67251 | 0.50864 | 12082 ft | 313 kts | 261° |
| 2026-04-22 16:01 | 51.66995 | 0.47371 | 11634 ft | 316 kts | 261° |
| 2026-04-22 16:01 | 51.66734 | 0.43846 | 11179 ft | 318 kts | 261° |
| 2026-04-22 16:01 | 51.66473 | 0.40306 | 10728 ft | 319 kts | 261° |
| 2026-04-22 16:02 | 51.66210 | 0.36747 | 10275 ft | 320 kts | 261° |
| 2026-04-22 16:02 | 51.65944 | 0.33175 | 9824 ft | 322 kts | 261° |
| 2026-04-22 16:02 | 51.65675 | 0.29596 | 9387 ft | 322 kts | 261° |
| 2026-04-22 16:02 | 51.65409 | 0.26010 | 9017 ft | 321 kts | 261° |
| 2026-04-22 16:03 | 51.65149 | 0.22524 | 8773 ft | 315 kts | 261° |
| 2026-04-22 16:03 | 51.64889 | 0.19055 | 8517 ft | 310 kts | 261° |
| 2026-04-22 16:03 | 51.64635 | 0.15656 | 8360 ft | 301 kts | 261° |
| 2026-04-22 16:03 | 51.64457 | 0.12350 | 8363 ft | 296 kts | 265° |
| 2026-04-22 16:04 | 51.64370 | 0.09052 | 8363 ft | 289 kts | 266° |
| 2026-04-22 16:04 | 51.64303 | 0.05894 | 8366 ft | 276 kts | 266° |
| 2026-04-22 16:04 | 51.64239 | 0.02854 | 8363 ft | 269 kts | 266° |
| 2026-04-22 16:04 | 51.64176 | -0.00163 | 8359 ft | 269 kts | 266° |
| 2026-04-22 16:05 | 51.64079 | -0.03173 | 8358 ft | 269 kts | 262° |
| 2026-04-22 16:05 | 51.63899 | -0.06181 | 8332 ft | 271 kts | 261° |
| 2026-04-22 16:05 | 51.63713 | -0.09187 | 8211 ft | 269 kts | 261° |
| 2026-04-22 16:05 | 51.63530 | -0.12185 | 8093 ft | 268 kts | 261° |
| 2026-04-22 16:06 | 51.63349 | -0.15165 | 7973 ft | 267 kts | 261° |
| 2026-04-22 16:06 | 51.63167 | -0.18147 | 7841 ft | 267 kts | 261° |
| 2026-04-22 16:06 | 51.62983 | -0.21119 | 7715 ft | 267 kts | 261° |
| 2026-04-22 16:06 | 51.62798 | -0.24100 | 7591 ft | 267 kts | 261° |
| 2026-04-22 16:07 | 51.62613 | -0.27062 | 7468 ft | 266 kts | 261° |
| 2026-04-22 16:07 | 51.62428 | -0.30024 | 7349 ft | 266 kts | 261° |
| 2026-04-22 16:07 | 51.62244 | -0.32938 | 7338 ft | 266 kts | 261° |
| 2026-04-22 16:07 | 51.62056 | -0.35902 | 7342 ft | 266 kts | 261° |
| 2026-04-22 16:08 | 51.61865 | -0.38866 | 7334 ft | 266 kts | 261° |
| 2026-04-22 16:08 | 51.61676 | -0.41820 | 7329 ft | 265 kts | 261° |
| 2026-04-22 16:08 | 51.61485 | -0.44779 | 7331 ft | 266 kts | 261° |
| 2026-04-22 16:08 | 51.61293 | -0.47744 | 7329 ft | 266 kts | 261° |
| 2026-04-22 16:09 | 51.61099 | -0.50707 | 7323 ft | 266 kts | 261° |
| 2026-04-22 16:09 | 51.60907 | -0.53673 | 7129 ft | 266 kts | 261° |
| 2026-04-22 16:09 | 51.60714 | -0.56639 | 6812 ft | 267 kts | 261° |
| 2026-04-22 16:09 | 51.60521 | -0.59605 | 6490 ft | 265 kts | 261° |
| 2026-04-22 16:10 | 51.60329 | -0.62553 | 6166 ft | 266 kts | 261° |
| 2026-04-22 16:10 | 51.59898 | -0.65408 | 5840 ft | 260 kts | 239° |
| 2026-04-22 16:10 | 51.59311 | -0.67070 | 5633 ft | 258 kts | 233° |
| 2026-04-22 16:10 | 51.58001 | -0.70282 | 5206 ft | 256 kts | 231° |
| 2026-04-22 16:11 | 51.57003 | -0.72654 | 4872 ft | 254 kts | 231° |
| 2026-04-22 16:11 | 51.55937 | -0.74779 | 4555 ft | 240 kts | 211° |
| 2026-04-22 16:11 | 51.54508 | -0.75832 | 4228 ft | 219 kts | 186° |
| 2026-04-22 16:11 | 51.53035 | -0.76271 | 3902 ft | 213 kts | 181° |
| 2026-04-22 16:12 | 51.51580 | -0.76621 | 3583 ft | 211 kts | 181° |
| 2026-04-22 16:12 | 51.50138 | -0.76785 | 3255 ft | 202 kts | 162° |
| 2026-04-22 16:12 | 51.48927 | -0.75898 | 3041 ft | 185 kts | 136° |
| 2026-04-22 16:12 | 51.48103 | -0.74425 | 2912 ft | 171 kts | 117° |
| 2026-04-22 16:13 | 51.47691 | -0.72713 | 2750 ft | 160 kts | 99° |
| 2026-04-22 16:13 | 51.47634 | -0.70939 | 2586 ft | 161 kts | 90° |
| 2026-04-22 16:13 | 51.47645 | -0.69136 | 2518 ft | 162 kts | 90° |
| 2026-04-22 16:13 | 51.47656 | -0.67344 | 2351 ft | 161 kts | 90° |
| 2026-04-22 16:14 | 51.47666 | -0.65599 | 2163 ft | 151 kts | 89° |
| 2026-04-22 16:14 | 51.47676 | -0.63966 | 1971 ft | 141 kts | 90° |
| 2026-04-22 16:14 | 51.47684 | -0.62454 | 1783 ft | 131 kts | 89° |
| 2026-04-22 16:14 | 51.47691 | -0.61023 | 1634 ft | 124 kts | 89° |
| 2026-04-22 16:15 | 51.47698 | -0.59641 | 1465 ft | 123 kts | 89° |
| 2026-04-22 16:15 | 51.47706 | -0.58275 | 1305 ft | 123 kts | 89° |
| 2026-04-22 16:15 | 51.47715 | -0.56914 | 1152 ft | 123 kts | 89° |
| 2026-04-22 16:15 | 51.47722 | -0.55538 | 992 ft | 124 kts | 89° |
| 2026-04-22 16:16 | 51.47728 | -0.54158 | 830 ft | 124 kts | 90° |
| 2026-04-22 16:16 | 51.47734 | -0.52786 | 656 ft | 123 kts | 89° |
| 2026-04-22 16:16 | 51.47744 | -0.51405 | 483 ft | 124 kts | 89° |
| 2026-04-22 16:16 | 51.47750 | -0.50012 | 321 ft | 125 kts | 90° |
| 2026-04-22 16:17 | 51.47751 | -0.48609 | 151 ft | 126 kts | 90° |
| 2026-04-22 16:17 | 51.47755 | -0.47287 | 88 ft | 104 kts | 90° |
| 2026-04-22 16:17 | 51.47759 | -0.46400 | 90 ft | 55 kts | 90° |
| 2026-04-22 16:17 | 51.47761 | -0.45942 | 85 ft | 38 kts | 89° |
| 2026-04-22 16:18 | 51.47763 | -0.45600 | 85 ft | 19 kts | 92° |
| 2026-04-22 16:18 | 51.47703 | -0.45478 | 89 ft | 12 kts | 162° |
| 2026-04-22 16:18 | 51.47621 | -0.45466 | 86 ft | 10 kts | 178° |
| 2026-04-22 16:18 | 51.47558 | -0.45462 | 87 ft | 9 kts | 178° |
| 2026-04-22 16:19 | 51.47508 | -0.45402 | 91 ft | 11 kts | 99° |
| 2026-04-22 16:19 | 51.47509 | -0.45273 | 90 ft | 13 kts | 88° |
| 2026-04-22 16:19 | 51.47510 | -0.45127 | 86 ft | 12 kts | 90° |
| 2026-04-22 16:19 | 51.47509 | -0.44982 | 90 ft | 13 kts | 90° |
| 2026-04-22 16:20 | 51.47510 | -0.44830 | 90 ft | 14 kts | 89° |
| 2026-04-22 16:20 | 51.47512 | -0.44675 | 88 ft | 13 kts | 90° |
| 2026-04-22 16:20 | 51.47468 | -0.44562 | 86 ft | 12 kts | 162° |
| 2026-04-22 16:20 | 51.47387 | -0.44559 | 86 ft | 13 kts | 180° |
| 2026-04-22 16:21 | 51.47301 | -0.44559 | 86 ft | 12 kts | 179° |
| 2026-04-22 16:21 | 51.47213 | -0.44557 | 86 ft | 13 kts | 179° |
| 2026-04-22 16:21 | 51.47114 | -0.44557 | 86 ft | 15 kts | 180° |
| 2026-04-22 16:21 | 51.47013 | -0.44556 | 86 ft | 14 kts | 179° |
| 2026-04-22 16:22 | 51.46818 | -0.44554 | 86 ft | 11 kts | 179° |
| 2026-04-22 16:22 | 51.46757 | -0.44595 | 88 ft | 10 kts | 243° |
| 2026-04-22 16:22 | 51.46752 | -0.44714 | 89 ft | 11 kts | 270° |
| 2026-04-22 16:23 | 51.46751 | -0.44976 | 86 ft | 12 kts | 270° |
| 2026-04-22 16:23 | 51.46752 | -0.45095 | 86 ft | 6 kts | 279° |
| 2026-04-22 16:23 | 51.46786 | -0.45112 | 86 ft | 6 kts | 359° |
| 2026-04-22 16:24 | 51.46820 | -0.45112 | 88 ft | 2 kts | 360° |
| 2026-04-22 16:24 | 51.46826 | -0.45112 | 86 ft | 0 kts | 360° |